createdAt,value
2024-01-20T00:02:23.618Z,-3.86
2024-01-20T00:05:27.311Z,-3.82
2024-01-20T00:08:30.632Z,-3.71
2024-01-20T00:11:33.985Z,-3.80
2024-01-20T00:14:36.879Z,-3.60
2024-01-20T00:17:41.999Z,-3.78
2024-01-20T00:20:47.441Z,-4.05
2024-01-20T00:23:51.543Z,-3.85
2024-01-20T00:26:54.303Z,-3.73
2024-01-20T00:29:57.772Z,-3.60
2024-01-20T00:33:00.907Z,-3.81
2024-01-20T00:36:04.624Z,-4.01
2024-01-20T00:39:07.544Z,-4.25
2024-01-20T00:42:10.840Z,-4.19
2024-01-20T00:45:13.644Z,-4.10
2024-01-20T00:48:16.829Z,-4.01
2024-01-20T00:51:19.801Z,-4.14
2024-01-20T00:54:23.041Z,-4.25
2024-01-20T00:57:25.908Z,-4.22
2024-01-20T01:00:29.082Z,-4.22
2024-01-20T01:03:32.262Z,-4.11
2024-01-20T01:06:35.640Z,-4.43
2024-01-20T01:09:38.681Z,-4.30
2024-01-20T01:12:41.878Z,-4.16
2024-01-20T01:15:44.695Z,-4.09
2024-01-20T01:18:48.153Z,-4.15
2024-01-20T01:21:51.254Z,-4.19
2024-01-20T01:24:54.650Z,-4.28
2024-01-20T01:27:57.747Z,-4.17
2024-01-20T01:31:00.935Z,-4.61
2024-01-20T01:34:03.952Z,-4.70
2024-01-20T01:37:07.256Z,-4.65
2024-01-20T01:40:10.676Z,-4.68
2024-01-20T01:43:13.917Z,-4.54
2024-01-20T01:46:17.010Z,-4.60
2024-01-20T01:49:22.036Z,-4.52
2024-01-20T01:52:25.634Z,-4.47
2024-01-20T01:55:29.183Z,-4.41
2024-01-20T01:58:32.210Z,-4.29
2024-01-20T02:01:35.557Z,-4.24
2024-01-20T02:04:39.154Z,-4.64
2024-01-20T02:07:44.916Z,-4.71
2024-01-20T02:10:48.648Z,-4.63
2024-01-20T02:13:51.971Z,-4.64
2024-01-20T02:16:55.002Z,-4.39
2024-01-20T02:19:58.176Z,-4.38
2024-01-20T02:23:01.790Z,-4.49
2024-01-20T02:26:05.206Z,-4.54
2024-01-20T02:29:08.379Z,-4.50
2024-01-20T02:32:11.642Z,-4.48
2024-01-20T02:35:14.575Z,-4.53
2024-01-20T02:38:17.892Z,-4.68
2024-01-20T02:41:20.838Z,-4.49
2024-01-20T02:44:24.151Z,-4.60
2024-01-20T02:47:27.203Z,-4.57
2024-01-20T02:50:30.298Z,-4.53
2024-01-20T02:53:33.616Z,-4.71
2024-01-20T02:56:37.146Z,-4.83
2024-01-20T02:59:40.021Z,-4.88
2024-01-20T03:02:43.211Z,-4.88
2024-01-20T03:05:46.612Z,-4.73
2024-01-20T03:08:50.380Z,-4.63
2024-01-20T03:11:53.200Z,-4.52
2024-01-20T03:14:56.489Z,-4.77
2024-01-20T03:17:59.640Z,-5.07
2024-01-20T03:21:03.025Z,-5.07
2024-01-20T03:24:06.350Z,-4.83
2024-01-20T03:27:10.900Z,-4.91
2024-01-20T03:30:14.159Z,-5.00
2024-01-20T03:33:17.698Z,-5.01
2024-01-20T03:36:20.769Z,-5.02
2024-01-20T03:39:24.285Z,-4.87
2024-01-20T03:42:29.261Z,-4.89
2024-01-20T03:45:32.805Z,-4.60
2024-01-20T03:48:35.920Z,-4.54
2024-01-20T03:51:39.497Z,-4.26
2024-01-20T03:54:42.585Z,-4.26
2024-01-20T03:57:45.711Z,-4.30
2024-01-20T04:01:05.139Z,-4.02
2024-01-20T04:04:09.366Z,-4.06
2024-01-20T04:07:12.689Z,-4.07
2024-01-20T04:10:16.104Z,-4.03
2024-01-20T04:13:19.118Z,-3.87
2024-01-20T04:16:22.366Z,-3.83
2024-01-20T04:19:25.465Z,-3.72
2024-01-20T04:22:29.025Z,-3.72
2024-01-20T04:25:32.009Z,-3.83
2024-01-20T04:28:35.220Z,-4.11
2024-01-20T04:31:38.401Z,-4.30
2024-01-20T04:34:41.945Z,-4.07
2024-01-20T04:37:45.245Z,-3.88
2024-01-20T04:40:48.683Z,-3.78
2024-01-20T04:43:51.724Z,-3.77
2024-01-20T04:46:55.065Z,-3.92
2024-01-20T04:49:57.832Z,-4.05
2024-01-20T04:53:00.976Z,-4.11
2024-01-20T04:56:07.643Z,-4.12
2024-01-20T04:59:10.869Z,-4.28
2024-01-20T05:02:14.576Z,-4.48
2024-01-20T05:05:22.851Z,-4.36
2024-01-20T05:08:25.713Z,-4.26
2024-01-20T05:11:28.707Z,-4.25
2024-01-20T05:14:31.726Z,-4.11
2024-01-20T05:17:35.370Z,-4.38
2024-01-20T05:20:39.337Z,-4.35
2024-01-20T05:23:42.686Z,-4.39
2024-01-20T05:26:45.723Z,-4.49
2024-01-20T05:29:49.139Z,-4.38
2024-01-20T05:32:52.291Z,-4.54
2024-01-20T05:35:57.659Z,-4.83
2024-01-20T05:39:00.707Z,-4.87
2024-01-20T05:42:04.650Z,-4.86
2024-01-20T05:45:10.809Z,-4.83
2024-01-20T05:48:14.396Z,-4.89
2024-01-20T05:51:17.190Z,-4.67
2024-01-20T05:54:20.636Z,-4.88
2024-01-20T05:57:25.374Z,-4.97
2024-01-20T06:00:28.890Z,-4.95
2024-01-20T06:03:35.873Z,-4.80
2024-01-20T06:06:39.279Z,-4.80
2024-01-20T06:09:42.691Z,-4.75
2024-01-20T06:12:46.065Z,-4.90
2024-01-20T06:15:49.901Z,-5.22
2024-01-20T06:18:52.874Z,-5.19
2024-01-20T06:21:56.346Z,-5.37
2024-01-20T06:24:59.377Z,-5.40
2024-01-20T06:28:04.745Z,-5.30
2024-01-20T06:31:07.789Z,-5.18
2024-01-20T06:34:11.214Z,-5.12
2024-01-20T06:37:14.762Z,-5.20
2024-01-20T06:40:18.245Z,-5.16
2024-01-20T06:43:21.320Z,-5.20
2024-01-20T06:46:24.754Z,-5.15
2024-01-20T06:49:27.681Z,-5.23
2024-01-20T06:52:32.706Z,-5.22
2024-01-20T06:55:36.072Z,-5.22
2024-01-20T06:58:39.483Z,-5.27
2024-01-20T07:01:46.039Z,-5.26
2024-01-20T07:04:50.218Z,-5.44
2024-01-20T07:07:55.097Z,-5.30
2024-01-20T07:10:58.471Z,-5.15
2024-01-20T07:14:01.253Z,-4.90
2024-01-20T07:17:06.732Z,-4.46
2024-01-20T07:20:12.074Z,-4.44
2024-01-20T07:23:15.122Z,-4.46
2024-01-20T07:26:18.376Z,-4.48
2024-01-20T07:29:21.694Z,-4.41
2024-01-20T07:32:24.752Z,-4.28
2024-01-20T07:35:27.957Z,-4.17
2024-01-20T07:38:31.170Z,-3.44
2024-01-20T07:41:34.566Z,-2.80
2024-01-20T07:44:37.711Z,-2.26
2024-01-20T07:47:41.306Z,-2.12
2024-01-20T07:50:44.314Z,-2.21
2024-01-20T07:53:48.758Z,-1.60
2024-01-20T07:56:51.656Z,-0.98
2024-01-20T07:59:54.956Z,-0.40
2024-01-20T08:02:58.856Z,-0.55
2024-01-20T08:06:08.788Z,-1.21
2024-01-20T08:09:12.664Z,-1.23
2024-01-20T08:12:16.240Z,-0.58
2024-01-20T08:15:19.197Z,-0.67
2024-01-20T08:18:23.039Z,0.25
2024-01-20T08:21:26.356Z,0.58
2024-01-20T08:24:29.847Z,0.46
2024-01-20T08:27:33.077Z,0.42
2024-01-20T08:30:36.480Z,0.49
2024-01-20T08:33:40.789Z,1.01
2024-01-20T08:36:44.466Z,1.80
2024-01-20T08:39:47.297Z,2.32
2024-01-20T08:42:51.849Z,2.99
2024-01-20T08:45:54.614Z,4.39
2024-01-20T08:48:57.917Z,4.74
2024-01-20T08:52:00.942Z,5.14
2024-01-20T08:55:04.601Z,5.66
2024-01-20T08:58:07.525Z,5.78
2024-01-20T09:01:11.180Z,5.81
2024-01-20T09:04:17.353Z,5.34
2024-01-20T09:07:22.035Z,5.01
2024-01-20T09:10:25.409Z,4.89
2024-01-20T09:13:29.051Z,6.04
2024-01-20T09:16:32.010Z,6.30
2024-01-20T09:19:35.281Z,7.00
2024-01-20T09:22:38.390Z,7.88
2024-01-20T09:25:41.588Z,8.05
2024-01-20T09:28:44.614Z,7.96
2024-01-20T09:31:47.997Z,8.72
2024-01-20T09:34:50.964Z,8.78
2024-01-20T09:37:54.051Z,7.92
2024-01-20T09:40:59.545Z,7.61
2024-01-20T09:44:04.033Z,8.34
2024-01-20T09:47:11.324Z,8.77
2024-01-20T09:50:14.654Z,9.37
2024-01-20T09:53:20.034Z,9.56
2024-01-20T09:56:23.580Z,10.14
2024-01-20T09:59:29.021Z,9.36
2024-01-20T10:02:34.566Z,8.36
2024-01-20T10:05:39.277Z,8.42
2024-01-20T10:08:42.579Z,8.06
2024-01-20T10:11:46.332Z,7.88
2024-01-20T10:14:49.586Z,7.93
2024-01-20T10:17:53.861Z,8.37
2024-01-20T10:21:05.074Z,8.23
2024-01-20T10:24:09.330Z,7.96
2024-01-20T10:27:21.676Z,8.09
2024-01-20T10:30:26.449Z,8.83
2024-01-20T10:33:29.538Z,8.76
2024-01-20T10:36:33.946Z,8.33
2024-01-20T10:39:43.787Z,9.47
2024-01-20T10:42:51.590Z,8.88
2024-01-20T10:46:21.240Z,9.27
2024-01-20T10:49:24.643Z,9.58
2024-01-20T10:52:27.452Z,8.08
2024-01-20T10:55:33.426Z,9.03
2024-01-20T10:58:53.502Z,8.71
2024-01-20T11:01:57.638Z,9.49
2024-01-20T11:05:01.444Z,9.84
2024-01-20T11:08:07.830Z,10.62
2024-01-20T11:11:11.514Z,10.23
2024-01-20T11:14:16.975Z,9.76
2024-01-20T11:17:20.698Z,9.21
2024-01-20T11:20:24.173Z,10.14
2024-01-20T11:23:27.999Z,9.76
2024-01-20T11:26:38.881Z,9.78
2024-01-20T11:29:41.686Z,9.86
2024-01-20T11:32:45.432Z,10.01
2024-01-20T11:35:48.445Z,10.05
2024-01-20T11:38:53.309Z,9.51
2024-01-20T11:42:05.522Z,9.40
2024-01-20T11:45:09.187Z,9.75
2024-01-20T11:48:15.099Z,10.28
2024-01-20T11:51:21.419Z,10.00
2024-01-20T11:54:24.433Z,10.17
2024-01-20T11:57:31.473Z,10.15
2024-01-20T12:00:34.724Z,9.82
2024-01-20T12:03:38.013Z,9.75
2024-01-20T12:06:41.178Z,9.91
2024-01-20T12:09:48.311Z,10.62
2024-01-20T12:12:51.226Z,10.95
2024-01-20T12:15:55.394Z,11.05
2024-01-20T12:18:58.337Z,10.97
2024-01-20T12:22:01.961Z,10.99
2024-01-20T12:25:05.334Z,10.14
2024-01-20T12:28:08.549Z,10.22
2024-01-20T12:31:13.890Z,9.11
2024-01-20T12:34:18.881Z,10.53
2024-01-20T12:37:22.119Z,10.30
2024-01-20T12:40:26.102Z,10.28
2024-01-20T12:43:29.249Z,10.23
2024-01-20T12:46:32.490Z,9.49
2024-01-20T12:49:35.557Z,9.47
2024-01-20T12:52:38.956Z,9.05
2024-01-20T12:55:42.162Z,8.94
2024-01-20T12:58:45.448Z,9.05
2024-01-20T13:01:50.193Z,9.08
2024-01-20T13:04:53.638Z,9.66
2024-01-20T13:07:56.887Z,10.42
2024-01-20T13:11:00.105Z,9.56
2024-01-20T13:14:04.732Z,9.24
2024-01-20T13:17:07.821Z,9.99
2024-01-20T13:20:11.316Z,10.56
2024-01-20T13:23:14.948Z,9.98
2024-01-20T13:26:18.273Z,9.67
2024-01-20T13:29:21.756Z,9.66
2024-01-20T13:32:24.975Z,9.64
2024-01-20T13:35:28.361Z,9.71
2024-01-20T13:38:31.396Z,9.86
2024-01-20T13:41:35.354Z,9.65
2024-01-20T13:44:38.736Z,9.13
2024-01-20T13:47:41.971Z,8.95
2024-01-20T13:50:44.991Z,7.89
2024-01-20T13:53:48.738Z,7.16
2024-01-20T13:56:51.754Z,6.14
2024-01-20T13:59:54.905Z,4.98
2024-01-20T14:02:58.118Z,4.15
2024-01-20T14:06:01.444Z,3.39
2024-01-20T14:09:06.440Z,3.03
2024-01-20T14:12:10.598Z,2.71
2024-01-20T14:15:13.766Z,2.50
2024-01-20T14:18:17.500Z,2.34
2024-01-20T14:21:20.668Z,2.32
2024-01-20T14:24:24.054Z,2.15
2024-01-20T14:27:27.073Z,2.00
2024-01-20T14:30:30.314Z,1.91
2024-01-20T14:33:33.604Z,1.81
2024-01-20T14:36:37.042Z,1.76
2024-01-20T14:39:40.709Z,1.69
2024-01-20T14:42:44.305Z,1.59
2024-01-20T14:45:47.447Z,1.46
2024-01-20T14:48:50.713Z,1.39
2024-01-20T14:51:53.605Z,1.33
2024-01-20T14:54:57.951Z,1.27
2024-01-20T14:58:00.851Z,1.22
2024-01-20T15:01:04.881Z,1.15
2024-01-20T15:04:08.678Z,1.01
2024-01-20T15:07:12.405Z,0.89
2024-01-20T15:10:15.738Z,0.73
2024-01-20T15:13:19.088Z,0.58
2024-01-20T15:16:22.285Z,0.46
2024-01-20T15:19:26.052Z,0.39
2024-01-20T15:22:29.074Z,0.33
2024-01-20T15:25:32.556Z,0.29
2024-01-20T15:28:35.406Z,0.23
2024-01-20T15:31:38.754Z,0.16
2024-01-20T15:34:41.822Z,0.04
2024-01-20T15:37:45.159Z,-0.05
2024-01-20T15:40:48.498Z,-0.08
2024-01-20T15:43:54.304Z,-0.22
2024-01-20T15:46:57.426Z,-0.34
2024-01-20T15:50:01.025Z,-0.51
2024-01-20T15:53:04.193Z,-0.65
2024-01-20T15:56:09.672Z,-0.72
2024-01-20T15:59:13.609Z,-0.69
2024-01-20T16:02:17.041Z,-0.69
2024-01-20T16:05:20.563Z,-0.64
2024-01-20T16:08:23.641Z,-0.74
2024-01-20T16:11:27.754Z,-0.87
2024-01-20T16:14:31.165Z,-0.86
2024-01-20T16:17:37.508Z,-0.95
2024-01-20T16:20:40.584Z,-1.07
2024-01-20T16:23:43.748Z,-1.17
2024-01-20T16:26:46.698Z,-1.26
2024-01-20T16:29:50.130Z,-1.31
2024-01-20T16:32:52.912Z,-1.08
2024-01-20T16:35:56.480Z,-1.27
2024-01-20T16:38:59.314Z,-1.30
2024-01-20T16:42:02.722Z,-1.38
2024-01-20T16:45:06.285Z,-1.44
2024-01-20T16:48:09.849Z,-1.48
2024-01-20T16:51:18.278Z,-1.40
2024-01-20T16:54:27.929Z,-1.35
2024-01-20T16:57:31.162Z,-1.43
2024-01-20T17:00:34.500Z,-1.59
2024-01-20T17:03:37.478Z,-1.46
2024-01-20T17:06:40.697Z,-1.64
2024-01-20T17:09:44.452Z,-1.64
2024-01-20T17:12:47.684Z,-1.82
2024-01-20T17:15:50.448Z,-1.97
2024-01-20T17:18:54.613Z,-1.86
2024-01-20T17:21:57.613Z,-1.79
2024-01-20T17:25:01.636Z,-1.81
2024-01-20T17:28:04.743Z,-1.83
2024-01-20T17:31:08.146Z,-1.99
2024-01-20T17:34:11.331Z,-1.97
2024-01-20T17:37:15.222Z,-2.04
2024-01-20T17:40:18.630Z,-2.20
2024-01-20T17:43:22.137Z,-2.24
2024-01-20T17:46:25.119Z,-2.36
2024-01-20T17:49:28.878Z,-2.40
2024-01-20T17:52:32.147Z,-2.48
2024-01-20T17:55:35.803Z,-2.40
2024-01-20T17:58:38.850Z,-2.34
2024-01-20T18:01:43.197Z,-2.22
2024-01-20T18:04:46.963Z,-2.20
2024-01-20T18:07:51.381Z,-2.11
2024-01-20T18:10:55.582Z,-2.08
2024-01-20T18:13:59.552Z,-2.19
2024-01-20T18:17:03.538Z,-2.20
2024-01-20T18:20:08.260Z,-2.44
2024-01-20T18:23:12.160Z,-2.32
2024-01-20T18:26:15.405Z,-2.45
2024-01-20T18:29:18.819Z,-2.56
2024-01-20T18:32:22.572Z,-2.43
2024-01-20T18:35:25.967Z,-2.35
2024-01-20T18:38:29.056Z,-2.40
2024-01-20T18:41:33.374Z,-2.51
2024-01-20T18:44:36.575Z,-2.38
2024-01-20T18:47:45.949Z,-2.46
2024-01-20T18:50:48.848Z,-2.68
2024-01-20T18:53:52.063Z,-2.62
2024-01-20T18:56:55.306Z,-2.65
2024-01-20T18:59:59.663Z,-2.62
2024-01-20T19:03:02.995Z,-2.83
2024-01-20T19:06:06.654Z,-2.72
2024-01-20T19:09:09.806Z,-2.69
2024-01-20T19:12:14.760Z,-2.63
2024-01-20T19:15:17.866Z,-2.65
2024-01-20T19:18:21.663Z,-2.68
2024-01-20T19:21:25.068Z,-2.65
2024-01-20T19:24:28.547Z,-2.76
2024-01-20T19:27:32.286Z,-2.91
2024-01-20T19:30:35.702Z,-2.94
2024-01-20T19:33:40.893Z,-3.03
2024-01-20T19:36:46.109Z,-3.10
2024-01-20T19:39:49.047Z,-2.94
2024-01-20T19:42:52.325Z,-2.93
2024-01-20T19:45:55.112Z,-3.11
2024-01-20T19:48:58.192Z,-3.04
2024-01-20T19:52:02.008Z,-3.28
2024-01-20T19:55:06.680Z,-3.04
2024-01-20T19:58:09.773Z,-3.23
2024-01-20T20:01:13.247Z,-3.38
2024-01-20T20:04:17.576Z,-3.28
2024-01-20T20:07:21.051Z,-3.25
2024-01-20T20:10:28.367Z,-3.44
2024-01-20T20:13:31.323Z,-3.31
2024-01-20T20:16:34.705Z,-3.56
2024-01-20T20:19:38.009Z,-3.44
2024-01-20T20:22:41.707Z,-3.47
2024-01-20T20:25:44.396Z,-3.48
2024-01-20T20:28:47.755Z,-3.48
2024-01-20T20:31:50.704Z,-3.46
2024-01-20T20:34:58.853Z,-3.74
2024-01-20T20:38:01.982Z,-3.82
2024-01-20T20:41:05.559Z,-3.68
2024-01-20T20:44:10.057Z,-3.61
2024-01-20T20:47:14.539Z,-3.63
2024-01-20T20:50:19.085Z,-3.59
2024-01-20T20:53:22.285Z,-3.60
2024-01-20T20:56:25.075Z,-3.62
2024-01-20T20:59:28.351Z,-3.58
2024-01-20T21:02:31.589Z,-3.49
2024-01-20T21:05:35.102Z,-3.38
2024-01-20T21:08:38.435Z,-3.60
2024-01-20T21:11:42.127Z,-3.83
2024-01-20T21:14:45.280Z,-3.98
2024-01-20T21:17:50.096Z,-4.22
2024-01-20T21:20:53.468Z,-4.38
2024-01-20T21:23:56.810Z,-4.33
2024-01-20T21:27:00.742Z,-4.44
2024-01-20T21:30:05.762Z,-4.44
2024-01-20T21:33:10.407Z,-4.49
2024-01-20T21:36:14.449Z,-4.57
2024-01-20T21:39:21.427Z,-4.45
2024-01-20T21:42:24.765Z,-4.33
2024-01-20T21:45:29.813Z,-4.33
2024-01-20T21:48:33.270Z,-4.30
2024-01-20T21:51:38.667Z,-4.50
2024-01-20T21:54:45.144Z,-4.60
2024-01-20T21:57:51.356Z,-4.48
2024-01-20T22:00:55.557Z,-4.61
2024-01-20T22:03:59.201Z,-4.79
2024-01-20T22:07:02.037Z,-4.83
2024-01-20T22:10:06.869Z,-4.92
2024-01-20T22:13:09.933Z,-4.93
2024-01-20T22:16:13.830Z,-4.97
2024-01-20T22:19:16.832Z,-4.80
2024-01-20T22:22:21.208Z,-4.79
2024-01-20T22:25:24.629Z,-4.80
2024-01-20T22:28:28.346Z,-4.65
2024-01-20T22:31:32.415Z,-4.60
2024-01-20T22:34:36.357Z,-4.70
2024-01-20T22:37:39.370Z,-4.82
2024-01-20T22:40:42.851Z,-4.90
2024-01-20T22:43:45.980Z,-4.90
2024-01-20T22:46:50.173Z,-4.87
2024-01-20T22:49:53.096Z,-4.93
2024-01-20T22:52:56.360Z,-4.96
2024-01-20T22:55:59.239Z,-5.07
2024-01-20T22:59:02.320Z,-4.90
2024-01-20T23:02:05.429Z,-4.83
2024-01-20T23:05:09.513Z,-4.88
2024-01-20T23:08:15.090Z,-4.87
2024-01-20T23:11:19.167Z,-4.72
2024-01-20T23:14:22.496Z,-4.81
2024-01-20T23:17:26.096Z,-4.70
2024-01-20T23:20:28.932Z,-4.81
2024-01-20T23:23:32.208Z,-4.78
2024-01-20T23:26:36.410Z,-4.81
2024-01-20T23:29:39.807Z,-4.85
2024-01-20T23:32:43.916Z,-4.83
2024-01-20T23:35:47.216Z,-5.01
2024-01-20T23:38:50.016Z,-5.11
2024-01-20T23:41:53.204Z,-5.25
2024-01-20T23:44:56.485Z,-5.15
2024-01-20T23:47:59.704Z,-5.27
2024-01-20T23:51:02.762Z,-5.19
2024-01-20T23:54:06.003Z,-5.33
2024-01-20T23:57:08.857Z,-5.21
